TGW120 WSSS-ZHHH
Flight info
| Callsign | TGW120 |
|---|---|
| Flight time | N/A |
| Altitude | 39000 |
| Route | VMR6A VMR M771 DUDIS/K0913F390 M771 DAMEL/K0907F400 M771 DOSUT/N0490F400 M771 DULOP/N0493F390 M771 DUMOL/N0492F400 J103 BEKOL/K0913S1220 A461 YIN/K0919S1190 A461 LIG/K0915S1220 W521 POXIB/K0913S1250 W56 UPMAT UPMAT2T |
| Aircraft | B788/H-SDE1E2E3FGHIJ2J3J4J5M1RWXY/LB1D1 |
Departure
| Time | 2026-05-05 07:41 |
|---|---|
| Airport | Singapore Changi Airport (WSSS) |
Arrival
| Time | N/A |
|---|---|
| Airport | Wuhan Tianhe International Airport (ZHHH) |
| Time | Latitude | Longitude | Altitude | Speed | Heading |
|---|---|---|---|---|---|
| 2026-05-05 07:05 | 1.36358 | 103.98862 | 35 ft | 0 kts | 113° |
| 2026-05-05 07:26 | 1.36358 | 103.98861 | 36 ft | 1 kts | 113° |
| 2026-05-05 07:26 | 1.36364 | 103.98846 | 35 ft | 3 kts | 106° |
| 2026-05-05 07:27 | 1.36368 | 103.98826 | 36 ft | 3 kts | 99° |
| 2026-05-05 07:27 | 1.36371 | 103.98807 | 36 ft | 3 kts | 102° |
| 2026-05-05 07:27 | 1.36377 | 103.98789 | 36 ft | 2 kts | 115° |
| 2026-05-05 07:27 | 1.36386 | 103.98776 | 35 ft | 3 kts | 141° |
| 2026-05-05 07:28 | 1.36398 | 103.98771 | 36 ft | 3 kts | 183° |
| 2026-05-05 07:28 | 1.36413 | 103.98775 | 35 ft | 1 kts | 202° |
| 2026-05-05 07:28 | 1.36426 | 103.98781 | 36 ft | 3 kts | 202° |
| 2026-05-05 07:28 | 1.36442 | 103.98788 | 36 ft | 2 kts | 202° |
| 2026-05-05 07:29 | 1.36445 | 103.98789 | 35 ft | 0 kts | 202° |
| 2026-05-05 07:31 | 1.36413 | 103.98776 | 36 ft | 9 kts | 203° |
| 2026-05-05 07:31 | 1.36333 | 103.98742 | 36 ft | 16 kts | 203° |
| 2026-05-05 07:32 | 1.36205 | 103.98688 | 36 ft | 23 kts | 202° |
| 2026-05-05 07:32 | 1.36081 | 103.98627 | 36 ft | 17 kts | 225° |
| 2026-05-05 07:32 | 1.36021 | 103.98529 | 36 ft | 16 kts | 232° |
| 2026-05-05 07:32 | 1.35921 | 103.98470 | 35 ft | 21 kts | 202° |
| 2026-05-05 07:33 | 1.35751 | 103.98399 | 36 ft | 30 kts | 202° |
| 2026-05-05 07:33 | 1.35566 | 103.98321 | 36 ft | 29 kts | 204° |
| 2026-05-05 07:33 | 1.35387 | 103.98247 | 35 ft | 28 kts | 203° |
| 2026-05-05 07:33 | 1.35210 | 103.98172 | 36 ft | 27 kts | 202° |
| 2026-05-05 07:34 | 1.35038 | 103.98099 | 36 ft | 27 kts | 202° |
| 2026-05-05 07:34 | 1.34872 | 103.98030 | 36 ft | 21 kts | 202° |
| 2026-05-05 07:34 | 1.34783 | 103.98047 | 36 ft | 13 kts | 120° |
| 2026-05-05 07:34 | 1.34732 | 103.98166 | 37 ft | 25 kts | 113° |
| 2026-05-05 07:35 | 1.34655 | 103.98347 | 52 ft | 28 kts | 113° |
| 2026-05-05 07:35 | 1.34580 | 103.98524 | 44 ft | 30 kts | 113° |
| 2026-05-05 07:35 | 1.34494 | 103.98725 | 36 ft | 32 kts | 113° |
| 2026-05-05 07:35 | 1.34413 | 103.98910 | 36 ft | 18 kts | 123° |
| 2026-05-05 07:36 | 1.34331 | 103.98915 | 35 ft | 13 kts | 203° |
| 2026-05-05 07:36 | 1.34256 | 103.98883 | 36 ft | 13 kts | 203° |
| 2026-05-05 07:36 | 1.34227 | 103.98871 | 36 ft | 13 kts | 203° |
| 2026-05-05 07:36 | 1.34127 | 103.98829 | 36 ft | 21 kts | 203° |
| 2026-05-05 07:37 | 1.33954 | 103.98756 | 35 ft | 30 kts | 203° |
| 2026-05-05 07:37 | 1.33765 | 103.98676 | 36 ft | 29 kts | 202° |
| 2026-05-05 07:37 | 1.33583 | 103.98600 | 36 ft | 28 kts | 204° |
| 2026-05-05 07:37 | 1.33409 | 103.98526 | 36 ft | 27 kts | 202° |
| 2026-05-05 07:38 | 1.33242 | 103.98457 | 35 ft | 26 kts | 202° |
| 2026-05-05 07:38 | 1.33079 | 103.98388 | 36 ft | 25 kts | 203° |
| 2026-05-05 07:38 | 1.32978 | 103.98353 | 36 ft | 11 kts | 171° |
| 2026-05-05 07:38 | 1.32932 | 103.98401 | 36 ft | 10 kts | 114° |
| 2026-05-05 07:39 | 1.32905 | 103.98464 | 36 ft | 10 kts | 113° |
| 2026-05-05 07:39 | 1.32900 | 103.98500 | 36 ft | 3 kts | 59° |
| 2026-05-05 07:39 | 1.32910 | 103.98510 | 35 ft | 1 kts | 27° |
| 2026-05-05 07:39 | 1.32911 | 103.98511 | 36 ft | 0 kts | 23° |
| 2026-05-05 07:40 | 1.32929 | 103.98518 | 36 ft | 11 kts | 23° |
| 2026-05-05 07:40 | 1.33126 | 103.98603 | 36 ft | 54 kts | 23° |
| 2026-05-05 07:40 | 1.33640 | 103.98820 | 36 ft | 105 kts | 24° |
| 2026-05-05 07:40 | 1.34460 | 103.99166 | 36 ft | 149 kts | 23° |
| 2026-05-05 07:41 | 1.35516 | 103.99610 | 239 ft | 174 kts | 18° |
| 2026-05-05 07:41 | 1.36704 | 104.00084 | 726 ft | 193 kts | 20° |
| 2026-05-05 07:41 | 1.38016 | 104.00546 | 1359 ft | 205 kts | 20° |
| 2026-05-05 07:41 | 1.39398 | 104.01059 | 2010 ft | 219 kts | 22° |
| 2026-05-05 07:42 | 1.40848 | 104.01624 | 2949 ft | 225 kts | 22° |
| 2026-05-05 07:42 | 1.42325 | 104.02203 | 3992 ft | 228 kts | 22° |
| 2026-05-05 07:42 | 1.43807 | 104.02796 | 4901 ft | 237 kts | 22° |
| 2026-05-05 07:42 | 1.45361 | 104.03396 | 5872 ft | 243 kts | 21° |
| 2026-05-05 07:43 | 1.46985 | 104.04006 | 6686 ft | 256 kts | 21° |
| 2026-05-05 07:43 | 1.48679 | 104.04693 | 7489 ft | 266 kts | 23° |
| 2026-05-05 07:43 | 1.50465 | 104.05248 | 8454 ft | 270 kts | 10° |
| 2026-05-05 07:43 | 1.52328 | 104.05279 | 9616 ft | 266 kts | 352° |
| 2026-05-05 07:44 | 1.54108 | 104.04812 | 10548 ft | 269 kts | 336° |
| 2026-05-05 07:44 | 1.55741 | 104.03802 | 11160 ft | 285 kts | 317° |
| 2026-05-05 07:44 | 1.56957 | 104.02246 | 12091 ft | 284 kts | 295° |
| 2026-05-05 07:44 | 1.57656 | 104.00360 | 12688 ft | 303 kts | 286° |
| 2026-05-05 07:45 | 1.58137 | 103.98303 | 13364 ft | 312 kts | 279° |
| 2026-05-05 07:45 | 1.58385 | 103.96131 | 14179 ft | 318 kts | 272° |
| 2026-05-05 07:45 | 1.58386 | 103.93902 | 15007 ft | 323 kts | 266° |
| 2026-05-05 07:45 | 1.58136 | 103.91655 | 15804 ft | 328 kts | 261° |
| 2026-05-05 07:46 | 1.57790 | 103.89387 | 16603 ft | 332 kts | 261° |
| 2026-05-05 07:46 | 1.57436 | 103.87109 | 17452 ft | 332 kts | 261° |
| 2026-05-05 07:46 | 1.57102 | 103.84816 | 18242 ft | 335 kts | 262° |